Time;durP1;ratioP1;P1;durP2;ratioP2;P2;SDS_P1;SDS_P2;PMS_P1;PMS_P2;Temp;Humidity;BMP_temperature;BMP_pressure;BME280_temperature;BME280_humidity;BME280_pressure;Samples;Min_cycle;Max_cycle;Signal;HPM_P1;HPM_P2
2023/07/28 00:00:29;;;;;;;10.50;4.80;;;;;;;;;;5087248;28;20036;-47
2023/07/28 00:02:56;;;;;;;9.57;5.07;;;;;;;;;;5087378;28;20323;-46
2023/07/28 00:05:22;;;;;;;11.32;5.13;;;;;;;;;;5087180;28;20020;-49
2023/07/28 00:07:49;;;;;;;13.00;5.72;;;;;;;;;;5087400;28;20062;-48
2023/07/28 00:10:16;;;;;;;8.07;5.40;;;;;;;;;;5086931;28;20038;-45
2023/07/28 00:12:42;;;;;;;10.05;4.88;;;;;;;;;;5086960;28;20024;-52
2023/07/28 00:15:09;;;;;;;8.05;4.68;;;;;;;;;;5087282;28;20044;-46
2023/07/28 00:17:36;;;;;;;19.50;5.10;;;;;;;;;;5086763;28;20044;-50
2023/07/28 00:20:03;;;;;;;6.72;3.75;;;;;;;;;;5086925;28;20324;-45
2023/07/28 00:22:30;;;;;;;10.00;4.28;;;;;;;;;;5086688;28;20036;-52
2023/07/28 00:24:56;;;;;;;6.15;4.10;;;;;;;;;;5086400;28;20032;-46
2023/07/28 00:27:23;;;;;;;5.07;3.63;;;;;;;;;;5086933;28;20066;-47
2023/07/28 00:29:51;;;;;;;9.40;4.00;;;;;;;;;;5086332;28;20037;-54
2023/07/28 00:32:18;;;;;;;4.78;3.17;;;;;;;;;;5086350;28;20028;-53
2023/07/28 00:34:45;;;;;;;5.63;3.50;;;;;;;;;;5086354;28;20017;-52
2023/07/28 00:37:14;;;;;;;4.10;3.10;;;;;;;;;;5086388;28;20041;-53
2023/07/28 00:39:40;;;;;;;6.70;3.67;;;;;;;;;;5086231;28;20063;-49
2023/07/28 00:42:09;;;;;;;5.25;3.50;;;;;;;;;;5086470;28;20323;-50
2023/07/28 00:44:37;;;;;;;5.53;3.70;;;;;;;;;;5085858;28;20111;-49
2023/07/28 00:47:04;;;;;;;5.70;4.47;;;;;;;;;;5086465;28;20032;-52
2023/07/28 00:49:31;;;;;;;7.20;5.57;;;;;;;;;;5086305;28;20020;-48
2023/07/28 00:51:57;;;;;;;8.43;6.60;;;;;;;;;;5086001;28;20024;-48
2023/07/28 00:54:24;;;;;;;9.57;6.60;;;;;;;;;;5085888;28;20032;-48
2023/07/28 00:56:52;;;;;;;10.63;6.85;;;;;;;;;;5085757;28;20016;-49
2023/07/28 00:59:19;;;;;;;9.10;6.00;;;;;;;;;;5084653;28;20020;-50
2023/07/28 01:01:46;;;;;;;10.95;6.50;;;;;;;;;;5085816;28;20280;-52
2023/07/28 01:04:12;;;;;;;12.77;9.13;;;;;;;;;;5085683;28;20035;-50
2023/07/28 01:06:49;;;;;;;10.45;6.80;;;;;;;;;;5085520;28;20028;-50
2023/07/28 01:09:18;;;;;;;7.35;6.32;;;;;;;;;;5085873;28;20025;-51
2023/07/28 01:11:58;;;;;;;9.70;5.78;;;;;;;;;;5084270;28;20036;-52
2023/07/28 01:14:25;;;;;;;7.50;5.00;;;;;;;;;;5085594;28;20032;-51
2023/07/28 01:16:52;;;;;;;13.50;5.28;;;;;;;;;;5085595;28;20109;-49
2023/07/28 01:19:20;;;;;;;6.90;5.53;;;;;;;;;;5085360;28;20043;-48
2023/07/28 01:21:54;;;;;;;12.05;6.22;;;;;;;;;;5085270;28;20040;-49
2023/07/28 01:24:24;;;;;;;8.13;5.18;;;;;;;;;;5085330;28;20028;-53
2023/07/28 01:26:52;;;;;;;8.30;4.00;;;;;;;;;;5085352;28;20054;-52
2023/07/28 01:29:19;;;;;;;10.70;4.25;;;;;;;;;;5085245;28;20026;-52
2023/07/28 01:31:47;;;;;;;10.30;4.40;;;;;;;;;;5084940;28;20023;-52
2023/07/28 01:34:14;;;;;;;9.65;5.45;;;;;;;;;;5075316;28;20060;-46
2023/07/28 01:36:59;;;;;;;14.70;7.07;;;;;;;;;;5051800;28;20063;-46
2023/07/28 01:39:25;;;;;;;11.50;10.30;;;;;;;;;;5052138;28;20025;-43
2023/07/28 01:41:52;;;;;;;15.35;11.82;;;;;;;;;;5055514;28;20044;-47
2023/07/28 01:44:19;;;;;;;18.63;10.25;;;;;;;;;;5064831;28;20263;-44
2023/07/28 01:46:45;;;;;;;11.90;7.03;;;;;;;;;;5065025;28;20047;-49
2023/07/28 01:49:22;;;;;;;6.38;4.82;;;;;;;;;;5064167;28;20040;-47
2023/07/28 01:51:52;;;;;;;6.50;3.53;;;;;;;;;;5058673;28;20309;-45
2023/07/28 01:54:19;;;;;;;5.82;3.40;;;;;;;;;;5064904;28;20079;-45
2023/07/28 01:56:48;;;;;;;4.53;3.13;;;;;;;;;;5064553;28;20375;-48
2023/07/28 01:59:19;;;;;;;5.68;3.10;;;;;;;;;;5064277;28;20019;-44
2023/07/28 02:01:58;;;;;;;8.07;2.67;;;;;;;;;;5063256;28;20028;-45
2023/07/28 02:04:25;;;;;;;6.10;2.72;;;;;;;;;;5064278;28;20020;-49
2023/07/28 02:06:51;;;;;;;6.70;2.50;;;;;;;;;;5073046;28;20036;-51
2023/07/28 02:09:18;;;;;;;7.97;2.42;;;;;;;;;;5058554;28;20344;-54
2023/07/28 02:11:48;;;;;;;10.35;2.20;;;;;;;;;;5051621;28;20029;-54
2023/07/28 02:14:24;;;;;;;16.48;2.55;;;;;;;;;;5055024;28;20100;-49
2023/07/28 02:16:51;;;;;;;30.13;3.00;;;;;;;;;;5049950;28;20048;-47
2023/07/28 02:19:17;;;;;;;50.88;4.57;;;;;;;;;;5056789;28;20109;-48
2023/07/28 02:21:44;;;;;;;4.93;1.73;;;;;;;;;;5054782;28;20020;-49
2023/07/28 02:24:11;;;;;;;5.30;1.95;;;;;;;;;;5060231;28;20063;-52
2023/07/28 02:26:41;;;;;;;6.78;1.85;;;;;;;;;;5059504;28;20029;-43
2023/07/28 02:29:08;;;;;;;7.95;2.03;;;;;;;;;;5045029;28;20058;-52
2023/07/28 02:31:34;;;;;;;4.93;1.80;;;;;;;;;;5044544;28;20025;-51
2023/07/28 02:34:01;;;;;;;11.15;1.63;;;;;;;;;;5050192;28;20048;-52
2023/07/28 02:36:28;;;;;;;5.30;1.95;;;;;;;;;;5057192;28;20017;-44
2023/07/28 02:38:55;;;;;;;29.27;2.53;;;;;;;;;;5044567;28;20028;-48
2023/07/28 02:41:21;;;;;;;8.60;1.75;;;;;;;;;;5048390;28;20036;-49
2023/07/28 02:43:48;;;;;;;8.23;1.90;;;;;;;;;;5053620;28;20053;-53
2023/07/28 02:46:16;;;;;;;9.52;1.83;;;;;;;;;;5064689;28;20032;-46
2023/07/28 02:48:43;;;;;;;7.93;1.77;;;;;;;;;;5064899;28;20021;-53
2023/07/28 02:51:10;;;;;;;4.30;1.40;;;;;;;;;;5058878;28;20507;-47
2023/07/28 02:53:39;;;;;;;4.63;1.60;;;;;;;;;;5053257;28;20029;-50
2023/07/28 02:56:06;;;;;;;3.85;1.60;;;;;;;;;;5044442;28;20021;-49
2023/07/28 02:58:32;;;;;;;7.10;1.35;;;;;;;;;;5044277;28;20244;-43
2023/07/28 03:01:01;;;;;;;7.07;1.58;;;;;;;;;;5044805;28;20026;-47
2023/07/28 03:03:28;;;;;;;6.53;1.70;;;;;;;;;;5043973;28;20044;-45
2023/07/28 03:05:55;;;;;;;11.10;2.05;;;;;;;;;;5050139;28;20313;-45
2023/07/28 03:08:22;;;;;;;4.13;1.58;;;;;;;;;;5055895;28;20021;-40
2023/07/28 03:10:48;;;;;;;17.48;1.83;;;;;;;;;;5066421;28;20086;-45
2023/07/28 03:13:21;;;;;;;24.33;2.20;;;;;;;;;;5068307;28;20032;-47
2023/07/28 03:15:48;;;;;;;8.95;1.65;;;;;;;;;;5068947;28;20021;-45
2023/07/28 03:18:18;;;;;;;11.60;1.50;;;;;;;;;;5068073;28;20029;-48
2023/07/28 03:20:45;;;;;;;47.80;3.40;;;;;;;;;;5068627;28;20067;-48
2023/07/28 03:23:11;;;;;;;6.55;1.67;;;;;;;;;;5068376;28;20040;-44
2023/07/28 03:25:38;;;;;;;5.28;1.33;;;;;;;;;;5066687;28;20025;-46
2023/07/28 03:28:05;;;;;;;5.95;1.65;;;;;;;;;;5067454;28;20333;-47
2023/07/28 03:30:33;;;;;;;21.20;2.22;;;;;;;;;;5052904;28;20029;-42
2023/07/28 03:33:00;;;;;;;3.78;1.30;;;;;;;;;;5068174;28;20040;-47
2023/07/28 03:35:26;;;;;;;4.75;1.48;;;;;;;;;;5066831;28;20013;-44
2023/07/28 03:37:53;;;;;;;5.00;1.50;;;;;;;;;;5066304;28;20017;-47
2023/07/28 03:40:20;;;;;;;5.47;1.60;;;;;;;;;;5067056;28;20097;-47
2023/07/28 03:42:46;;;;;;;3.15;1.35;;;;;;;;;;5067175;28;20075;-54
2023/07/28 03:45:13;;;;;;;3.75;1.30;;;;;;;;;;5067507;28;20068;-47
2023/07/28 03:47:40;;;;;;;13.40;1.77;;;;;;;;;;5060165;28;20055;-48
2023/07/28 03:50:07;;;;;;;5.72;1.35;;;;;;;;;;5049843;28;20261;-46
2023/07/28 03:52:33;;;;;;;4.28;1.40;;;;;;;;;;5047308;28;20025;-44
2023/07/28 03:55:00;;;;;;;11.50;1.80;;;;;;;;;;5044948;28;20206;-49
2023/07/28 03:57:27;;;;;;;10.45;2.20;;;;;;;;;;5045392;28;20028;-45
2023/07/28 03:59:54;;;;;;;4.78;1.83;;;;;;;;;;5049686;28;20036;-48
2023/07/28 04:02:20;;;;;;;17.02;2.40;;;;;;;;;;5064253;28;20074;-50
2023/07/28 04:04:47;;;;;;;5.40;1.60;;;;;;;;;;5065171;28;20074;-51
2023/07/28 04:07:14;;;;;;;5.60;1.98;;;;;;;;;;5066110;28;20017;-42
2023/07/28 04:09:40;;;;;;;4.93;1.77;;;;;;;;;;5066681;28;20080;-44
2023/07/28 04:12:07;;;;;;;4.97;1.60;;;;;;;;;;5066343;28;20077;-43
2023/07/28 04:14:34;;;;;;;4.18;1.50;;;;;;;;;;5066404;28;20025;-45
2023/07/28 04:17:00;;;;;;;3.20;1.40;;;;;;;;;;5066493;28;20033;-45
2023/07/28 04:19:29;;;;;;;20.10;2.40;;;;;;;;;;5066390;28;20070;-45
2023/07/28 04:21:55;;;;;;;5.45;1.75;;;;;;;;;;5065915;28;20036;-43
2023/07/28 04:24:22;;;;;;;3.53;1.45;;;;;;;;;;5066082;28;20079;-41
2023/07/28 04:26:49;;;;;;;16.27;2.30;;;;;;;;;;5066431;28;20221;-43
2023/07/28 04:29:15;;;;;;;5.32;1.20;;;;;;;;;;5066220;28;20366;-45
2023/07/28 04:31:42;;;;;;;6.53;1.40;;;;;;;;;;5066291;28;20036;-43
2023/07/28 04:34:09;;;;;;;6.88;1.30;;;;;;;;;;5065999;28;20027;-43
2023/07/28 04:36:35;;;;;;;4.78;1.58;;;;;;;;;;5066284;28;20024;-45
2023/07/28 04:39:02;;;;;;;3.72;1.15;;;;;;;;;;5065858;28;20029;-42
2023/07/28 04:41:28;;;;;;;4.80;1.17;;;;;;;;;;5066092;28;20037;-41
2023/07/28 04:43:55;;;;;;;5.57;1.20;;;;;;;;;;5065786;28;20045;-49
2023/07/28 04:46:22;;;;;;;7.25;1.38;;;;;;;;;;5065698;28;20036;-44
2023/07/28 04:48:48;;;;;;;6.18;1.38;;;;;;;;;;5065781;28;20216;-44
2023/07/28 04:51:15;;;;;;;4.32;1.20;;;;;;;;;;5061512;28;20103;-46
2023/07/28 04:53:42;;;;;;;5.22;1.40;;;;;;;;;;5057659;28;20039;-42
2023/07/28 04:56:09;;;;;;;4.45;1.30;;;;;;;;;;5065718;28;20301;-41
2023/07/28 04:58:35;;;;;;;3.05;1.40;;;;;;;;;;5063743;28;20028;-40
2023/07/28 05:01:03;;;;;;;2.42;1.30;;;;;;;;;;5055673;28;20116;-44
2023/07/28 05:03:30;;;;;;;9.98;1.90;;;;;;;;;;5045358;28;20017;-47
2023/07/28 05:05:56;;;;;;;5.20;1.38;;;;;;;;;;5045592;28;20089;-48
2023/07/28 05:08:23;;;;;;;5.43;1.20;;;;;;;;;;5045454;28;20033;-42
2023/07/28 05:10:49;;;;;;;6.65;1.25;;;;;;;;;;5045219;28;20252;-41
2023/07/28 05:13:16;;;;;;;8.18;1.92;;;;;;;;;;5045400;28;20048;-42
2023/07/28 05:15:43;;;;;;;9.20;1.48;;;;;;;;;;5045200;28;20029;-44
2023/07/28 05:18:09;;;;;;;4.88;1.60;;;;;;;;;;5045310;28;20028;-43
2023/07/28 05:20:36;;;;;;;4.65;1.52;;;;;;;;;;5045351;28;20331;-44
2023/07/28 05:23:03;;;;;;;3.95;1.35;;;;;;;;;;5045677;28;20102;-44
2023/07/28 05:25:30;;;;;;;5.03;1.50;;;;;;;;;;5045021;28;20021;-45
2023/07/28 05:27:56;;;;;;;3.88;1.40;;;;;;;;;;5045735;28;20036;-41
2023/07/28 05:30:23;;;;;;;6.75;1.80;;;;;;;;;;5045034;28;20097;-49
2023/07/28 05:32:50;;;;;;;10.30;2.25;;;;;;;;;;5044587;28;20221;-42
2023/07/28 05:35:17;;;;;;;8.90;1.70;;;;;;;;;;5044195;28;20013;-42
2023/07/28 05:37:44;;;;;;;5.85;1.50;;;;;;;;;;5045292;28;20033;-42
2023/07/28 05:40:11;;;;;;;4.05;1.30;;;;;;;;;;5044783;28;20013;-42
2023/07/28 05:42:38;;;;;;;5.90;1.42;;;;;;;;;;5045297;28;20021;-42
2023/07/28 05:45:04;;;;;;;3.42;1.30;;;;;;;;;;5044561;28;20050;-44
2023/07/28 05:47:31;;;;;;;3.33;1.20;;;;;;;;;;5044975;28;20301;-42
2023/07/28 05:49:59;;;;;;;7.03;1.20;;;;;;;;;;5044863;28;20021;-45
2023/07/28 05:52:26;;;;;;;13.20;1.80;;;;;;;;;;5045031;28;20029;-44
2023/07/28 05:54:52;;;;;;;6.70;1.63;;;;;;;;;;5044396;28;20107;-43
2023/07/28 05:57:19;;;;;;;6.97;1.58;;;;;;;;;;5044883;28;20298;-44
2023/07/28 05:59:46;;;;;;;5.90;1.33;;;;;;;;;;5048034;28;20308;-50
2023/07/28 06:02:13;;;;;;;6.18;1.58;;;;;;;;;;5058824;28;20189;-43
2023/07/28 06:04:40;;;;;;;4.85;1.10;;;;;;;;;;5045228;28;20018;-47
2023/07/28 06:07:07;;;;;;;4.72;1.35;;;;;;;;;;5044696;28;20044;-45
2023/07/28 06:09:33;;;;;;;2.80;1.27;;;;;;;;;;5044222;28;20017;-44
2023/07/28 06:12:00;;;;;;;3.63;1.20;;;;;;;;;;5044696;28;20021;-51
2023/07/28 06:14:26;;;;;;;2.90;1.20;;;;;;;;;;5044206;28;20071;-49
2023/07/28 06:16:53;;;;;;;3.38;1.45;;;;;;;;;;5044113;28;20339;-53
2023/07/28 06:19:23;;;;;;;7.20;1.02;;;;;;;;;;5044476;28;20049;-41
2023/07/28 06:21:52;;;;;;;13.45;1.70;;;;;;;;;;5044379;28;20045;-42
2023/07/28 06:24:20;;;;;;;4.97;1.40;;;;;;;;;;5044014;28;20017;-42
2023/07/28 06:26:46;;;;;;;10.20;1.23;;;;;;;;;;5044420;28;20041;-42
2023/07/28 06:29:13;;;;;;;8.93;1.27;;;;;;;;;;5054767;28;20032;-43
2023/07/28 06:31:40;;;;;;;30.23;2.20;;;;;;;;;;5064034;28;20020;-45
2023/07/28 06:34:06;;;;;;;3.50;1.45;;;;;;;;;;5063948;28;20029;-41
2023/07/28 06:36:33;;;;;;;6.53;1.10;;;;;;;;;;5064128;28;20028;-43
2023/07/28 06:38:59;;;;;;;5.57;1.02;;;;;;;;;;5063813;28;20013;-47
2023/07/28 06:41:26;;;;;;;3.70;1.05;;;;;;;;;;5064100;28;20191;-42
2023/07/28 06:43:53;;;;;;;7.50;1.25;;;;;;;;;;5063733;28;20049;-46
2023/07/28 06:46:19;;;;;;;3.75;1.10;;;;;;;;;;5063665;28;20093;-42
2023/07/28 06:48:46;;;;;;;4.72;0.90;;;;;;;;;;5063799;28;20020;-44
2023/07/28 06:51:13;;;;;;;4.53;1.00;;;;;;;;;;5063924;28;20036;-43
2023/07/28 06:53:40;;;;;;;1.80;0.98;;;;;;;;;;5063701;28;20040;-42
2023/07/28 06:56:06;;;;;;;7.47;1.15;;;;;;;;;;5063660;28;20028;-42
2023/07/28 06:58:33;;;;;;;5.22;1.20;;;;;;;;;;5063858;28;20284;-43
2023/07/28 07:01:00;;;;;;;4.00;0.90;;;;;;;;;;5059848;28;20035;-40
2023/07/28 07:03:26;;;;;;;3.67;1.27;;;;;;;;;;5054717;28;20036;-43
2023/07/28 07:05:53;;;;;;;6.40;1.30;;;;;;;;;;5062445;28;20082;-42
2023/07/28 07:08:20;;;;;;;6.88;1.05;;;;;;;;;;5063654;28;20216;-43
2023/07/28 07:10:52;;;;;;;4.13;0.95;;;;;;;;;;5060894;28;20239;-43
2023/07/28 07:13:19;;;;;;;8.10;1.45;;;;;;;;;;5052644;28;20035;-45
2023/07/28 07:15:46;;;;;;;7.10;1.17;;;;;;;;;;5043534;28;20044;-44
2023/07/28 07:18:13;;;;;;;5.57;1.10;;;;;;;;;;5043574;28;20037;-46
2023/07/28 07:20:39;;;;;;;7.95;1.38;;;;;;;;;;5043651;28;20033;-43
2023/07/28 07:23:06;;;;;;;10.13;1.52;;;;;;;;;;5043688;28;20100;-44
2023/07/28 07:25:33;;;;;;;6.03;1.23;;;;;;;;;;5043401;28;20017;-43
2023/07/28 07:28:00;;;;;;;24.98;1.88;;;;;;;;;;5043977;28;20041;-49
2023/07/28 07:30:26;;;;;;;9.18;1.50;;;;;;;;;;5043478;28;20084;-49
2023/07/28 07:32:53;;;;;;;6.80;1.30;;;;;;;;;;5043660;28;20308;-49
2023/07/28 07:35:20;;;;;;;6.15;1.15;;;;;;;;;;5043498;28;20032;-50
2023/07/28 07:37:46;;;;;;;7.10;1.00;;;;;;;;;;5043855;28;20029;-49
2023/07/28 07:40:14;;;;;;;8.38;1.40;;;;;;;;;;5043308;28;20336;-52
2023/07/28 07:42:42;;;;;;;14.70;1.40;;;;;;;;;;5043809;28;20033;-49
2023/07/28 07:45:10;;;;;;;7.43;1.20;;;;;;;;;;5043176;28;20048;-50
2023/07/28 07:47:37;;;;;;;10.00;1.63;;;;;;;;;;5043627;28;20030;-45
2023/07/28 07:50:04;;;;;;;6.00;1.52;;;;;;;;;;5043333;28;20037;-44
2023/07/28 07:52:31;;;;;;;6.63;1.63;;;;;;;;;;5043664;28;20297;-44
2023/07/28 07:54:58;;;;;;;3.63;1.20;;;;;;;;;;5043096;28;20029;-45
2023/07/28 07:57:24;;;;;;;3.25;1.45;;;;;;;;;;5044844;28;20236;-42
2023/07/28 07:59:51;;;;;;;5.38;1.10;;;;;;;;;;5046745;28;20029;-43
2023/07/28 08:02:18;;;;;;;6.47;1.20;;;;;;;;;;5046568;28;20025;-49
2023/07/28 08:04:44;;;;;;;6.50;1.67;;;;;;;;;;5046640;28;20052;-51
2023/07/28 08:07:11;;;;;;;3.80;1.15;;;;;;;;;;5046978;28;20033;-42
2023/07/28 08:09:38;;;;;;;6.72;1.00;;;;;;;;;;5046556;28;20021;-49
2023/07/28 08:12:05;;;;;;;6.65;1.25;;;;;;;;;;5047005;28;20041;-42
2023/07/28 08:14:31;;;;;;;6.38;1.40;;;;;;;;;;5046430;28;20080;-45
2023/07/28 08:16:58;;;;;;;8.73;1.67;;;;;;;;;;5046588;28;20025;-48
2023/07/28 08:19:25;;;;;;;5.13;1.33;;;;;;;;;;5046471;28;20028;-44
2023/07/28 08:21:52;;;;;;;5.30;1.25;;;;;;;;;;5046659;28;20220;-43
2023/07/28 08:24:18;;;;;;;4.88;1.20;;;;;;;;;;5046263;28;20214;-47
2023/07/28 08:26:45;;;;;;;6.85;1.40;;;;;;;;;;5046430;28;20364;-43
2023/07/28 08:29:12;;;;;;;8.00;1.33;;;;;;;;;;5046290;28;20048;-43
2023/07/28 08:31:38;;;;;;;6.57;0.90;;;;;;;;;;5046277;28;20052;-42
2023/07/28 08:34:05;;;;;;;4.40;1.15;;;;;;;;;;5045948;28;20075;-42
2023/07/28 08:36:31;;;;;;;4.88;1.10;;;;;;;;;;5046279;28;20205;-42
2023/07/28 08:38:58;;;;;;;5.28;1.17;;;;;;;;;;5046077;28;20339;-44
2023/07/28 08:41:25;;;;;;;4.15;1.10;;;;;;;;;;5046299;28;20048;-53
2023/07/28 08:43:51;;;;;;;19.05;1.63;;;;;;;;;;5045799;28;20045;-51
2023/07/28 08:46:20;;;;;;;14.50;1.38;;;;;;;;;;5045888;28;20034;-44
2023/07/28 08:48:47;;;;;;;4.07;1.13;;;;;;;;;;5045829;28;20037;-44
2023/07/28 08:51:14;;;;;;;5.00;1.10;;;;;;;;;;5045919;28;20221;-43
2023/07/28 08:53:41;;;;;;;4.60;0.98;;;;;;;;;;5045788;28;20025;-43
2023/07/28 08:56:07;;;;;;;6.95;1.13;;;;;;;;;;5045661;28;20466;-42
2023/07/28 08:58:34;;;;;;;9.18;1.63;;;;;;;;;;5045712;28;20021;-41
2023/07/28 09:01:01;;;;;;;6.97;1.33;;;;;;;;;;5045648;28;20376;-49
2023/07/28 09:03:28;;;;;;;9.85;1.40;;;;;;;;;;5045430;28;20101;-46
2023/07/28 09:06:00;;;;;;;5.93;1.10;;;;;;;;;;5045628;28;20021;-48
2023/07/28 09:08:27;;;;;;;6.82;1.40;;;;;;;;;;5045371;28;20090;-49
2023/07/28 09:10:57;;;;;;;5.63;1.08;;;;;;;;;;5045484;28;20543;-48
2023/07/28 09:13:24;;;;;;;8.30;1.20;;;;;;;;;;5045322;28;20021;-43
2023/07/28 09:15:50;;;;;;;5.00;1.00;;;;;;;;;;5045213;28;20018;-45
2023/07/28 09:18:18;;;;;;;6.88;1.10;;;;;;;;;;5045379;28;20022;-49
2023/07/28 09:20:44;;;;;;;7.07;1.70;;;;;;;;;;5045184;28;20021;-47
2023/07/28 09:23:11;;;;;;;4.55;1.13;;;;;;;;;;5045076;28;20028;-49
2023/07/28 09:25:38;;;;;;;4.00;1.10;;;;;;;;;;5045140;28;20037;-43
2023/07/28 09:28:05;;;;;;;8.13;1.35;;;;;;;;;;5061017;28;20213;-44
2023/07/28 09:30:49;;;;;;;6.97;1.13;;;;;;;;;;5045088;28;20384;-47
2023/07/28 09:33:30;;;;;;;10.63;9.70;;;;;;;;;;5045014;28;20040;-45
2023/07/28 09:35:57;;;;;;;7.68;2.60;;;;;;;;;;5044761;28;20202;-45
2023/07/28 09:38:25;;;;;;;4.38;2.00;;;;;;;;;;5044981;28;20032;-44
2023/07/28 09:40:51;;;;;;;4.43;1.63;;;;;;;;;;5060323;28;20017;-43
2023/07/28 09:43:18;;;;;;;8.00;1.83;;;;;;;;;;5044535;28;20364;-48
2023/07/28 09:45:46;;;;;;;7.55;1.80;;;;;;;;;;5045034;28;20097;-42
2023/07/28 09:48:14;;;;;;;5.68;1.60;;;;;;;;;;5044771;28;20254;-43
2023/07/28 09:50:42;;;;;;;6.20;1.73;;;;;;;;;;5049706;28;20076;-47
2023/07/28 09:53:10;;;;;;;8.10;1.58;;;;;;;;;;5059778;28;20040;-48
2023/07/28 09:55:40;;;;;;;6.05;1.40;;;;;;;;;;5064481;28;20028;-46
2023/07/28 09:58:09;;;;;;;8.88;1.83;;;;;;;;;;5064388;28;20340;-50
2023/07/28 10:00:37;;;;;;;4.38;1.63;;;;;;;;;;5064509;28;20084;-52
2023/07/28 10:03:03;;;;;;;6.07;1.33;;;;;;;;;;5064883;28;20201;-50
2023/07/28 10:05:31;;;;;;;5.85;1.45;;;;;;;;;;5064458;28;20016;-48
2023/07/28 10:07:58;;;;;;;4.05;1.45;;;;;;;;;;5063802;28;20131;-51
2023/07/28 10:10:25;;;;;;;7.50;1.67;;;;;;;;;;5064330;28;20370;-54
2023/07/28 10:13:00;;;;;;;4.70;1.30;;;;;;;;;;5063222;28;20033;-52
2023/07/28 10:15:31;;;;;;;3.90;1.02;;;;;;;;;;5063036;28;20032;-56
2023/07/28 10:17:59;;;;;;;5.88;1.30;;;;;;;;;;5064507;28;20025;-42
2023/07/28 10:20:38;;;;;;;3.63;1.30;;;27.20;99.90;;;;;;5063747;28;20313;-43
2023/07/28 10:23:11;;;;;;;3.70;1.15;;;27.00;99.90;;;;;;5064567;28;20025;-42
2023/07/28 10:25:38;;;;;;;4.50;1.10;;;;;;;;;;5064151;28;20320;-42
2023/07/28 10:28:06;;;;;;;7.80;1.65;;;;;;;;;;5064477;28;20048;-42
2023/07/28 10:30:37;;;;;;;6.90;1.45;;;;;;;;;;5063929;28;20335;-44
2023/07/28 10:33:07;;;;;;;5.15;1.50;;;;;;;;;;5063692;28;20021;-43
2023/07/28 10:35:34;;;;;;;6.60;1.10;;;;;;;;;;5063947;28;20017;-45
2023/07/28 10:38:20;;;;;;;8.38;1.50;;;;;;;;;;5064255;28;20064;-44
2023/07/28 10:40:47;;;;;;;7.65;1.27;;;;;;;;;;5063727;28;20317;-45
2023/07/28 10:43:13;;;;;;;4.97;1.40;;;;;;;;;;5063495;28;20053;-44
2023/07/28 10:45:40;;;;;;;7.57;1.60;;;;;;;;;;5063908;28;20021;-46
2023/07/28 10:48:08;;;;;;;6.47;1.20;;;;;;;;;;5063790;28;20321;-51
2023/07/28 10:50:35;;;;;;;6.72;1.40;;;;;;;;;;5063665;28;20033;-43
2023/07/28 10:53:02;;;;;;;5.70;1.10;;;;;;;;;;5064249;28;20033;-42
2023/07/28 10:55:30;;;;;;;10.88;3.47;;;;;;;;;;5063759;28;20101;-42
2023/07/28 10:57:58;;;;;;;9.52;3.85;;;;;;;;;;5064072;28;20053;-41
2023/07/28 11:00:25;;;;;;;11.05;5.50;;;;;;;;;;5063810;28;20039;-44
2023/07/28 11:02:52;;;;;;;8.77;4.20;;;;;;;;;;5064100;28;20033;-44
2023/07/28 11:05:23;;;;;;;5.88;3.00;;;;;;;;;;5063598;28;20024;-44
2023/07/28 11:07:55;;;;;;;9.68;2.78;;;;;;;;;;5064046;28;20028;-46
2023/07/28 11:10:22;;;;;;;10.90;2.10;;;;;;;;;;5063708;28;20033;-42
2023/07/28 11:12:50;;;;;;;8.60;2.10;;;;;;;;;;5063690;28;20313;-43
2023/07/28 11:15:17;;;;;;;4.60;1.80;;;;;;;;;;5063564;28;20012;-49
2023/07/28 11:17:46;;;;;;;7.78;1.98;;;;;;;;;;5063388;28;20032;-44
2023/07/28 11:20:16;;;;;;;8.88;1.73;;;;;;;;;;5063371;28;20264;-47
2023/07/28 11:22:44;;;;;;;4.75;1.50;;;;;;;;;;5063912;28;20041;-45
2023/07/28 11:25:12;;;;;;;7.85;2.00;;;27.00;99.90;;;;;;5063467;28;20037;-45
2023/07/28 11:27:40;;;;;;;10.10;1.92;;;27.00;99.90;;;;;;5063777;28;20047;-48
2023/07/28 11:30:10;;;;;;;9.13;1.65;;;27.00;99.90;;;;;;5062201;28;20213;-43
2023/07/28 11:32:37;;;;;;;6.28;1.60;;;;;;;;;;5064284;28;20059;-43
2023/07/28 11:35:05;;;;;;;9.48;1.90;;;27.20;99.90;;;;;;5055883;28;20043;-48
2023/07/28 11:37:34;;;;;;;7.63;1.60;;;27.10;99.90;;;;;;5067564;28;20044;-44
2023/07/28 11:40:06;;;;;;;12.07;2.10;;;27.10;99.90;;;;;;5067026;28;20031;-48
2023/07/28 11:42:35;;;;;;;11.32;1.90;;;27.20;99.90;;;;;;5067658;28;20066;-59
2023/07/28 11:45:04;;;;;;;8.15;1.45;;;27.20;99.90;;;;;;5066896;28;20387;-55
2023/07/28 11:47:32;;;;;;;5.53;1.45;;;27.20;99.90;;;;;;5067214;28;20029;-56
2023/07/28 11:50:00;;;;;;;10.10;1.63;;;27.30;99.90;;;;;;5067171;28;20313;-60
2023/07/28 11:52:37;;;;;;;9.32;1.50;;;27.30;99.90;;;;;;5067376;28;20212;-61
2023/07/28 11:55:07;;;;;;;11.57;1.70;;;27.30;99.90;;;;;;5067114;28;20044;-58
2023/07/28 11:57:35;;;;;;;11.52;2.35;;;27.30;99.90;;;;;;5067375;28;20032;-64
2023/07/28 12:00:04;;;;;;;8.52;2.10;;;27.30;99.90;;;;;;5065448;28;20025;-60
2023/07/28 12:02:33;;;;;;;10.85;3.95;;;27.40;99.90;;;;;;5066778;28;20017;-43
2023/07/28 12:05:00;;;;;;;8.13;2.88;;;27.50;99.90;;;;;;5066746;28;20254;-46
2023/07/28 12:07:31;;;;;;;7.05;3.53;;;27.50;99.90;;;;;;5066916;28;20055;-45
2023/07/28 12:10:06;;;;;;;8.38;2.88;;;27.50;99.90;;;;;;5067290;28;20020;-47
2023/07/28 12:12:43;;;;;;;7.15;3.05;;;27.60;99.90;;;;;;5067196;28;20040;-49
2023/07/28 12:15:30;;;;;;;16.88;3.75;;;27.60;99.90;;;;;;5066726;28;20048;-45
2023/07/28 12:18:14;;;;;;;5.63;2.50;;;27.70;99.90;;;;;;5067200;28;20312;-43
2023/07/28 12:20:41;;;;;;;6.57;2.00;;;27.70;99.90;;;;;;5066483;28;20020;-48
2023/07/28 12:23:09;;;;;;;9.63;2.72;;;27.60;99.90;;;;;;5066830;28;20061;-47
2023/07/28 12:25:38;;;;;;;5.22;2.40;;;27.70;99.90;;;;;;5066635;28;20102;-46
2023/07/28 12:28:05;;;;;;;9.02;2.25;;;27.70;99.90;;;;;;5066880;28;20331;-44
2023/07/28 12:30:33;;;;;;;8.80;1.85;;;27.70;99.90;;;;;;5066154;28;20032;-50
2023/07/28 12:33:00;;;;;;;5.45;1.58;;;27.80;99.90;;;;;;5066566;28;20201;-46
2023/07/28 12:35:31;;;;;;;5.63;1.73;;;27.80;99.90;;;;;;5066354;28;20017;-49
2023/07/28 12:38:04;;;;;;;7.73;1.70;;;27.80;99.90;;;;;;5066602;28;20032;-44
2023/07/28 12:40:33;;;;;;;8.35;1.65;;;27.90;99.90;;;;;;5066228;28;20325;-49
2023/07/28 12:43:02;;;;;;;5.93;1.95;;;28.00;99.90;;;;;;5065823;28;20100;-41
2023/07/28 12:45:29;;;;;;;6.25;1.40;;;27.90;99.90;;;;;;5066069;28;20017;-42
2023/07/28 12:47:56;;;;;;;5.25;1.33;;;28.00;99.90;;;;;;5066473;28;20025;-41
2023/07/28 12:50:24;;;;;;;6.70;1.30;;;;;;;;;;5065960;28;20157;-46
2023/07/28 12:52:52;;;;;;;8.30;1.60;;;;;;;;;;5066118;28;20028;-43
2023/07/28 12:55:20;;;;;;;5.90;1.30;;;;;;;;;;5066147;28;20083;-45
2023/07/28 12:57:51;;;;;;;4.18;1.30;;;;;;;;;;5066245;28;20320;-44
2023/07/28 13:00:18;;;;;;;7.97;1.83;;;;;;;;;;5065821;28;20013;-48
2023/07/28 13:02:46;;;;;;;3.03;1.30;;;;;;;;;;5065700;28;20046;-45
2023/07/28 13:05:13;;;;;;;1.70;1.10;;;;;;;;;;5065539;28;20190;-49
2023/07/28 13:07:41;;;;;;;3.60;1.10;;;;;;;;;;5065804;28;20224;-49
2023/07/28 13:10:11;;;;;;;7.38;1.83;;;;;;;;;;5065744;28;20021;-48
2023/07/28 13:12:38;;;;;;;5.70;1.63;;;;;;;;;;5065926;28;20198;-57
2023/07/28 13:15:05;;;;;;;4.15;1.63;;;;;;;;;;5065542;28;20047;-51
2023/07/28 13:17:32;;;;;;;3.22;1.35;;;;;;;;;;5066329;28;20017;-44
2023/07/28 13:19:59;;;;;;;3.42;1.40;;;;;;;;;;5065701;28;20025;-46
2023/07/28 13:22:27;;;;;;;3.95;1.40;;;;;;;;;;5063567;28;20024;-45
2023/07/28 13:24:54;;;;;;;4.20;1.25;;;28.50;99.90;;;;;;5065881;28;20066;-46
2023/07/28 13:27:20;;;;;;;5.97;1.40;;;28.40;99.90;;;;;;5066446;28;20107;-43
2023/07/28 13:29:47;;;;;;;3.63;1.30;;;28.40;99.90;;;;;;5065633;28;20020;-50
2023/07/28 13:32:28;;;;;;;3.63;1.25;;;28.50;99.90;;;;;;5065851;28;20047;-46
2023/07/28 13:34:55;;;;;;;3.40;1.02;;;28.60;99.90;;;;;;5063532;28;20220;-44
2023/07/28 13:37:23;;;;;;;1.70;0.90;;;28.70;99.90;;;;;;5063876;28;20063;-45
2023/07/28 13:39:51;;;;;;;3.85;1.30;;;28.70;99.90;;;;;;5065213;28;20136;-45
2023/07/28 13:42:18;;;;;;;2.47;1.13;;;;;;;;;;5065414;28;20029;-50
2023/07/28 13:44:47;;;;;;;3.00;1.10;;;;;;;;;;5052404;28;20283;-43
2023/07/28 13:47:14;;;;;;;5.07;1.52;;;;;;;;;;5047234;28;20037;-44
2023/07/28 13:49:41;;;;;;;13.00;1.77;;;;;;;;;;5057653;28;20073;-46
2023/07/28 13:52:08;;;;;;;13.25;1.60;;;;;;;;;;5054347;28;20033;-46
2023/07/28 13:54:34;;;;;;;5.65;1.30;;;;;;;;;;5060933;28;20040;-44
2023/07/28 13:57:01;;;;;;;5.63;1.50;;;;;;;;;;5064623;28;20036;-46
2023/07/28 13:59:27;;;;;;;4.07;1.38;;;;;;;;;;5068234;28;20327;-42
2023/07/28 14:01:55;;;;;;;4.13;1.48;;;;;;;;;;5076010;28;20100;-40
2023/07/28 14:04:22;;;;;;;6.05;1.27;;;;;;;;;;5084301;28;20040;-49
2023/07/28 14:06:48;;;;;;;5.85;1.25;;;;;;;;;;5065956;28;20029;-45
2023/07/28 14:09:15;;;;;;;2.58;1.20;;;;;;;;;;5049061;28;20041;-40
2023/07/28 14:11:42;;;;;;;5.00;1.50;;;;;;;;;;5044186;28;20057;-44
2023/07/28 14:14:08;;;;;;;5.38;1.40;;;;;;;;;;5043910;28;20036;-46
2023/07/28 14:16:36;;;;;;;4.95;1.90;;;;;;;;;;5044065;28;20048;-44
2023/07/28 14:19:06;;;;;;;3.90;1.90;;;;;;;;;;5056464;28;20091;-41
2023/07/28 14:21:34;;;;;;;4.65;1.98;;;;;;;;;;5055534;28;20051;-44
2023/07/28 14:24:00;;;;;;;5.18;1.63;;;;;;;;;;5063935;28;20032;-42
2023/07/28 14:26:27;;;;;;;5.20;1.98;;;;;;;;;;5063994;28;20037;-40
2023/07/28 14:28:54;;;;;;;4.13;1.75;;;;;;;;;;5064141;28;20033;-47